Time;durP1;ratioP1;P1;durP2;ratioP2;P2;SDS_P1;SDS_P2;PMS_P1;PMS_P2;Temp;Humidity;BMP_temperature;BMP_pressure;BME280_temperature;BME280_humidity;BME280_pressure;Samples;Min_cycle;Max_cycle;Signal;HPM_P1;HPM_P2
2022/10/27 00:01:15;;;;;;;11.90;5.75;;;;;;;;;;6246877;22;20004;-80
2022/10/27 00:03:41;;;;;;;14.85;5.65;;;;;;;;;;6245721;23;20031;-81
2022/10/27 00:06:06;;;;;;;17.13;5.95;;;;;;;;;;6246185;23;20069;-81
2022/10/27 00:08:36;;;;;;;13.98;5.82;;;;;;;;;;6245082;23;20440;-80
2022/10/27 00:11:04;;;;;;;11.48;5.97;;;;;;;;;;6244423;23;20008;-83
2022/10/27 00:13:30;;;;;;;12.07;5.65;;;;;;;;;;6246377;22;20008;-80
2022/10/27 00:16:02;;;;;;;14.77;5.50;;;;;;;;;;6246370;23;20001;-82
2022/10/27 00:18:28;;;;;;;13.18;5.65;;;;;;;;;;6246681;22;20419;-82
2022/10/27 00:21:04;;;;;;;13.85;6.07;;;;;;;;;;6244813;23;20004;-81
2022/10/27 00:23:30;;;;;;;18.67;6.70;;;;;;;;;;6246662;22;20026;-81
2022/10/27 00:25:56;;;;;;;28.52;6.22;;;;;;;;;;6247317;22;20000;-82
2022/10/27 00:28:21;;;;;;;14.57;6.13;;;;;;;;;;6245622;23;20008;-80
2022/10/27 00:30:47;;;;;;;10.50;5.95;;;;;;;;;;6245860;23;20059;-83
2022/10/27 00:33:15;;;;;;;17.20;6.32;;;;;;;;;;6247711;23;20003;-81
2022/10/27 00:35:40;;;;;;;16.23;5.93;;;;;;;;;;6247891;22;20416;-81
2022/10/27 00:38:06;;;;;;;17.35;6.45;;;;;;;;;;6247882;23;20007;-80
2022/10/27 00:40:37;;;;;;;19.20;7.00;;;;;;;;;;6248834;22;20486;-81
2022/10/27 00:43:50;;;;;;;11.18;5.55;;;;;;;;;;6249665;23;20420;-81
2022/10/27 00:46:43;;;;;;;17.17;6.07;;;;;;;;;;6241198;23;19998;-82
2022/10/27 00:52:41;;;;;;;15.80;6.45;;;;;;;;;;6246597;22;20027;-84
2022/10/27 00:55:11;;;;;;;15.50;6.97;;;;;;;;;;6244776;23;20095;-83
2022/10/27 00:57:36;;;;;;;15.60;6.47;;;;;;;;;;6193604;23;20008;-84
2022/10/27 01:00:03;;;;;;;16.05;6.50;;;;;;;;;;6218328;23;20057;-84
2022/10/27 01:02:28;;;;;;;14.63;5.97;;;;;;;;;;6244701;23;20360;-84
2022/10/27 01:04:56;;;;;;;16.75;6.03;;;;;;;;;;6218043;23;20023;-84
2022/10/27 01:07:22;;;;;;;13.20;5.88;;;;;;;;;;6193447;23;20347;-84
2022/10/27 01:09:47;;;;;;;12.52;5.93;;;;;;;;;;6169335;23;20008;-85
2022/10/27 01:12:13;;;;;;;13.48;6.20;;;;;;;;;;6218169;23;20420;-84
2022/10/27 01:14:38;;;;;;;19.55;6.40;;;;;;;;;;6244408;23;20011;-84
2022/10/27 01:17:18;;;;;;;12.77;5.55;;;;;;;;;;6243885;23;20022;-85
2022/10/27 01:20:12;;;;;;;13.93;6.38;;;;;;;;;;6218153;23;20347;-85
2022/10/27 01:23:00;;;;;;;16.50;6.43;;;;;;;;;;6244186;23;20004;-86
2022/10/27 01:25:38;;;;;;;12.15;5.90;;;;;;;;;;6217400;23;20011;-84
2022/10/27 01:28:40;;;;;;;16.88;6.05;;;;;;;;;;6247688;23;20035;-85
2022/10/27 01:31:09;;;;;;;16.00;6.40;;;;;;;;;;6244772;23;20008;-84
2022/10/27 01:33:46;;;;;;;14.43;6.43;;;;;;;;;;6217585;23;20023;-84
2022/10/27 01:36:32;;;;;;;13.45;5.88;;;;;;;;;;6217462;23;20004;-85
2022/10/27 01:39:19;;;;;;;16.27;6.10;;;;;;;;;;6194591;23;20000;-85
2022/10/27 01:41:55;;;;;;;14.18;6.45;;;;;;;;;;6193225;23;20050;-85
2022/10/27 01:44:22;;;;;;;13.88;5.45;;;;;;;;;;6192340;23;20347;-85
2022/10/27 01:46:48;;;;;;;15.60;5.93;;;;;;;;;;6219034;23;20091;-84
2022/10/27 01:49:14;;;;;;;13.88;5.97;;;;;;;;;;6195324;23;20074;-85
2022/10/27 01:51:39;;;;;;;13.30;5.70;;;;;;;;;;6217291;23;20027;-85
2022/10/27 01:54:04;;;;;;;17.30;6.10;;;;;;;;;;6244325;23;20034;-84
2022/10/27 01:56:58;;;;;;;15.30;5.88;;;;;;;;;;6243860;23;20079;-84
2022/10/27 01:59:48;;;;;;;17.52;6.13;;;;;;;;;;6243838;23;20004;-84
2022/10/27 02:02:46;;;;;;;15.63;6.05;;;;;;;;;;6243637;23;20487;-84
2022/10/27 02:05:12;;;;;;;12.18;5.30;;;;;;;;;;6195783;23;20001;-84
2022/10/27 02:07:54;;;;;;;17.55;6.38;;;;;;;;;;6218094;23;20019;-85
2022/10/27 02:10:26;;;;;;;14.45;5.72;;;;;;;;;;6217527;23;20015;-84
2022/10/27 02:12:51;;;;;;;10.98;5.82;;;;;;;;;;6244198;23;20004;-84
2022/10/27 02:15:31;;;;;;;13.90;5.50;;;;;;;;;;6193662;23;20521;-85
2022/10/27 02:18:01;;;;;;;16.88;5.55;;;;;;;;;;6196110;23;20453;-85
2022/10/27 02:20:28;;;;;;;14.27;6.20;;;;;;;;;;6218933;23;19996;-85
2022/10/27 02:22:54;;;;;;;12.32;6.13;;;;;;;;;;6194304;23;20000;-84
2022/10/27 02:25:24;;;;;;;14.40;5.78;;;;;;;;;;6219095;23;20007;-84
2022/10/27 02:27:50;;;;;;;13.63;6.53;;;;;;;;;;6195273;23;20086;-84
2022/10/27 02:30:16;;;;;;;13.82;5.88;;;;;;;;;;6193844;23;20031;-83
2022/10/27 02:32:41;;;;;;;15.38;6.28;;;;;;;;;;6245637;23;20497;-84
2022/10/27 02:35:07;;;;;;;12.52;5.72;;;;;;;;;;6193863;23;20493;-84
2022/10/27 02:37:37;;;;;;;13.40;6.10;;;;;;;;;;6193941;23;20015;-85
2022/10/27 02:40:03;;;;;;;15.13;6.10;;;;;;;;;;6218702;23;19996;-84
2022/10/27 02:42:28;;;;;;;11.75;5.82;;;;;;;;;;6245558;23;20022;-84
2022/10/27 02:44:54;;;;;;;14.38;6.53;;;;;;;;;;6245210;23;20000;-84
2022/10/27 02:47:19;;;;;;;15.57;6.30;;;;;;;;;;6219377;23;20505;-84
2022/10/27 02:49:45;;;;;;;14.02;6.13;;;;;;;;;;6245711;23;20004;-85
2022/10/27 02:52:11;;;;;;;12.70;6.30;;;;;;;;;;6228037;23;20440;-85
2022/10/27 02:54:36;;;;;;;15.73;6.60;;;;;;;;;;6188607;23;20005;-84
2022/10/27 02:57:02;;;;;;;12.82;6.05;;;;;;;;;;6188551;23;20079;-84
2022/10/27 02:59:27;;;;;;;17.30;6.30;;;;;;;;;;6188011;23;20005;-84
2022/10/27 03:01:52;;;;;;;11.68;6.35;;;;;;;;;;6215003;23;20344;-84
2022/10/27 03:04:18;;;;;;;16.65;6.40;;;;;;;;;;6188481;23;20000;-85
2022/10/27 03:06:43;;;;;;;17.35;6.45;;;;;;;;;;6188767;23;20005;-84
2022/10/27 03:09:09;;;;;;;15.95;6.20;;;;;;;;;;6214098;23;20004;-85
2022/10/27 03:11:34;;;;;;;11.50;6.13;;;;;;;;;;6188511;23;20367;-85
2022/10/27 03:14:00;;;;;;;14.77;6.65;;;;;;;;;;6214387;23;20007;-84
2022/10/27 03:16:25;;;;;;;14.23;6.22;;;;;;;;;;6188423;23;20005;-84
2022/10/27 03:18:51;;;;;;;13.65;6.10;;;;;;;;;;6214803;23;20004;-84
2022/10/27 03:21:16;;;;;;;11.93;6.00;;;;;;;;;;6188671;23;20442;-84
2022/10/27 03:23:42;;;;;;;14.82;6.85;;;;;;;;;;6188192;23;20060;-84
2022/10/27 03:26:08;;;;;;;19.92;7.00;;;;;;;;;;6214848;23;20020;-84
2022/10/27 03:28:36;;;;;;;12.98;7.10;;;;;;;;;;6188439;23;20008;-84
2022/10/27 03:31:02;;;;;;;16.67;6.50;;;;;;;;;;6214956;23;20054;-83
2022/10/27 03:33:28;;;;;;;16.70;6.57;;;;;;;;;;6188450;23;20395;-85
2022/10/27 03:35:53;;;;;;;13.60;6.60;;;;;;;;;;6188520;23;20055;-84
2022/10/27 03:38:19;;;;;;;15.48;6.20;;;;;;;;;;6214600;23;20012;-85
2022/10/27 03:40:44;;;;;;;14.57;6.95;;;;;;;;;;6163859;23;20005;-83
2022/10/27 03:43:10;;;;;;;15.68;6.57;;;;;;;;;;6214226;23;20012;-84
2022/10/27 03:45:35;;;;;;;14.93;6.90;;;;;;;;;;6163552;23;20058;-84
2022/10/27 03:48:05;;;;;;;15.25;7.45;;;;;;;;;;6189111;23;20000;-85
2022/10/27 03:50:31;;;;;;;15.68;6.65;;;;;;;;;;6228979;23;19996;-83
2022/10/27 03:52:57;;;;;;;16.98;6.45;;;;;;;;;;6215724;23;20038;-84
2022/10/27 03:55:22;;;;;;;13.27;7.45;;;;;;;;;;6214960;23;20000;-84
2022/10/27 03:57:48;;;;;;;15.07;6.90;;;;;;;;;;6212985;23;20063;-85
2022/10/27 04:00:14;;;;;;;13.43;6.78;;;;;;;;;;6214862;23;20001;-84
2022/10/27 04:02:39;;;;;;;18.67;7.43;;;;;;;;;;6215551;23;20067;-84
2022/10/27 04:05:05;;;;;;;16.73;8.00;;;;;;;;;;6214535;23;20008;-84
2022/10/27 04:07:33;;;;;;;19.88;8.30;;;;;;;;;;6214847;23;20055;-84
2022/10/27 04:13:11;;;;;;;18.25;8.45;;;;;;;;;;6224284;22;20023;-85
2022/10/27 04:15:37;;;;;;;16.52;8.38;;;;;;;;;;6217712;23;20015;-85
2022/10/27 04:18:02;;;;;;;22.52;8.88;;;;;;;;;;6244553;23;20000;-86
2022/10/27 04:20:28;;;;;;;17.98;8.27;;;;;;;;;;6244501;23;20402;-84
2022/10/27 04:22:57;;;;;;;16.52;8.48;;;;;;;;;;6192809;23;20004;-85
2022/10/27 04:25:23;;;;;;;18.10;8.98;;;;;;;;;;6217823;23;20103;-85
2022/10/27 04:27:49;;;;;;;23.77;9.27;;;;;;;;;;6218270;23;20001;-84
2022/10/27 04:30:14;;;;;;;22.38;9.00;;;;;;;;;;6244013;23;20008;-84
2022/10/27 04:32:40;;;;;;;20.23;9.27;;;;;;;;;;6216576;23;19996;-84
2022/10/27 04:35:06;;;;;;;18.30;9.40;;;;;;;;;;6243520;22;20031;-86
2022/10/27 04:37:32;;;;;;;23.90;9.15;;;;;;;;;;6216570;23;20032;-85
2022/10/27 04:39:58;;;;;;;26.35;9.48;;;;;;;;;;6216964;23;20012;-85
2022/10/27 04:42:24;;;;;;;20.35;9.02;;;;;;;;;;6242838;23;19996;-85
2022/10/27 04:44:49;;;;;;;20.33;9.35;;;;;;;;;;6218001;23;20004;-84
2022/10/27 04:47:18;;;;;;;24.27;9.07;;;;;;;;;;6242398;23;20000;-85
2022/10/27 05:22:41;;;;;;;43.90;13.55;;;;;;;;;;6236765;22;20232;-82
2022/10/27 05:28:31;;;;;;;53.08;13.95;;;;;;;;;;6119219;22;20400;-81
2022/10/27 05:31:01;;;;;;;38.08;12.40;;;;;;;;;;6244841;22;20004;-82
2022/10/27 05:33:27;;;;;;;45.25;14.48;;;;;;;;;;6242487;23;20450;-81
2022/10/27 05:35:53;;;;;;;59.05;14.68;;;;;;;;;;6239876;23;20003;-82
2022/10/27 05:38:19;;;;;;;65.18;21.90;;;;;;;;;;6246872;23;20004;-84
2022/10/27 05:55:30;;;;;;;;;;;;;;;;;;;;;
2022/10/27 06:00:41;;;;;;;27.27;8.73;;;;;;;;;;6255540;22;20016;-83
2022/10/27 06:03:51;;;;;;;20.48;7.97;;;;;;;;;;6232554;23;20012;-83
2022/10/27 06:06:30;;;;;;;18.30;7.63;;;;;;;;;;6259808;23;20004;-82
2022/10/27 06:12:04;;;;;;;16.05;6.72;;;;;;;;;;6283966;22;20112;-83
2022/10/27 06:14:29;;;;;;;17.25;7.72;;;;;;;;;;6261345;22;20406;-83
2022/10/27 06:16:55;;;;;;;15.52;6.93;;;;;;;;;;6257449;22;19999;-83
2022/10/27 06:19:21;;;;;;;17.33;8.30;;;;;;;;;;6279057;22;20000;-83
2022/10/27 06:21:46;;;;;;;19.30;7.68;;;;;;;;;;6251587;22;20000;-83
2022/10/27 06:24:12;;;;;;;17.05;7.60;;;;;;;;;;6229336;22;20004;-84
2022/10/27 06:26:37;;;;;;;17.02;7.20;;;;;;;;;;6283508;22;20007;-83
2022/10/27 06:29:07;;;;;;;17.33;7.55;;;;;;;;;;6207350;22;19996;-83
2022/10/27 06:31:32;;;;;;;21.95;7.53;;;;;;;;;;6257542;22;20008;-85
2022/10/27 06:33:58;;;;;;;23.83;8.05;;;;;;;;;;6255790;22;19999;-83
2022/10/27 06:36:23;;;;;;;20.83;7.45;;;;;;;;;;6259460;22;20375;-84
2022/10/27 06:38:51;;;;;;;23.80;7.15;;;;;;;;;;6256890;22;20070;-83
2022/10/27 06:41:23;;;;;;;18.80;7.47;;;;;;;;;;6258818;22;20004;-84
2022/10/27 06:43:49;;;;;;;16.33;7.45;;;;;;;;;;6238266;22;20018;-84
2022/10/27 06:46:21;;;;;;;17.00;7.47;;;;;;;;;;6204163;22;20004;-84
2022/10/27 06:48:59;;;;;;;;;;;;;;;;;;;;;
2022/10/27 06:51:28;;;;;;;20.23;7.32;;;;;;;;;;6251754;22;20035;-84
2022/10/27 06:53:57;;;;;;;21.23;7.32;;;;;;;;;;6278214;22;20014;-85
2022/10/27 06:56:25;;;;;;;18.33;7.97;;;;;;;;;;6260899;22;20002;-88
2022/10/27 06:58:51;;;;;;;19.90;7.85;;;;;;;;;;6265511;22;20033;-85
2022/10/27 07:01:21;;;;;;;27.52;8.20;;;;;;;;;;6238794;22;20000;-88
2022/10/27 07:04:00;;;;;;;29.92;8.13;;;;;;;;;;6241770;22;20027;-87
2022/10/27 07:06:35;;;;;;;26.52;8.23;;;;;;;;;;6269067;22;20004;-87
2022/10/27 07:09:27;;;;;;;24.73;8.68;;;;;;;;;;6269509;22;20011;-85
2022/10/27 07:11:57;;;;;;;16.50;7.32;;;;;;;;;;6265311;22;20059;-89
2022/10/27 07:14:23;;;;;;;15.20;8.00;;;;;;;;;;6220737;22;20095;-90
2022/10/27 07:16:49;;;;;;;28.77;8.02;;;;;;;;;;6274206;22;19996;-91
2022/10/27 07:19:56;;;;;;;17.98;7.80;;;;;;;;;;6243959;22;20069;-87
2022/10/27 07:28:01;;;;;;;16.02;7.13;;;;;;;;;;6247773;22;20011;-91
2022/10/27 07:30:48;;;;;;;;;;;;;;;;;;;;;
2022/10/27 07:33:56;;;;;;;18.67;6.95;;;;;;;;;;6241556;22;20012;-89
2022/10/27 07:36:29;;;;;;;15.15;6.68;;;;;;;;;;6234153;23;20010;-86
2022/10/27 07:38:54;;;;;;;18.83;7.40;;;;;;;;;;6259998;23;20008;-87
2022/10/27 07:41:23;;;;;;;29.40;8.10;;;;;;;;;;6235160;23;20064;-89
2022/10/27 07:43:57;;;;;;;24.50;7.88;;;;;;;;;;6213748;23;20020;-89
2022/10/27 07:46:23;;;;;;;17.48;7.78;;;;;;;;;;6236188;23;20015;-87
2022/10/27 07:48:48;;;;;;;17.67;8.02;;;;;;;;;;6182873;23;20015;-90
2022/10/27 07:51:14;;;;;;;22.98;8.10;;;;;;;;;;6258471;23;20022;-88
2022/10/27 07:53:39;;;;;;;21.63;7.68;;;;;;;;;;6254217;23;20035;-86
2022/10/27 07:56:06;;;;;;;15.13;7.72;;;;;;;;;;6229758;23;20003;-85
2022/10/27 07:58:32;;;;;;;14.65;8.48;;;;;;;;;;6229140;23;20393;-85
2022/10/27 08:00:59;;;;;;;21.10;9.02;;;;;;;;;;6229928;23;20008;-87
2022/10/27 08:03:27;;;;;;;25.05;8.80;;;;;;;;;;6203229;23;20011;-85
2022/10/27 08:05:52;;;;;;;16.45;8.25;;;;;;;;;;6251571;23;20008;-86
2022/10/27 08:08:19;;;;;;;23.80;9.23;;;;;;;;;;6177252;23;20118;-85
2022/10/27 08:10:44;;;;;;;28.48;8.70;;;;;;;;;;6255960;23;20015;-87
2022/10/27 08:13:10;;;;;;;17.15;8.20;;;;;;;;;;6226567;23;20095;-87
2022/10/27 08:15:36;;;;;;;18.08;8.23;;;;;;;;;;6225164;23;20058;-86
2022/10/27 08:18:02;;;;;;;23.38;8.45;;;;;;;;;;6253921;23;20014;-85
2022/10/27 08:20:33;;;;;;;18.08;8.32;;;;;;;;;;6231973;23;20015;-86
2022/10/27 08:23:03;;;;;;;21.05;8.10;;;;;;;;;;6203608;23;20015;-86
2022/10/27 08:25:29;;;;;;;24.45;8.10;;;;;;;;;;6230505;23;20003;-88
2022/10/27 08:27:55;;;;;;;18.55;7.65;;;;;;;;;;6181476;23;20120;-88
2022/10/27 08:30:33;;;;;;;19.80;8.40;;;;;;;;;;6233538;23;20102;-88
2022/10/27 08:33:12;;;;;;;13.43;7.78;;;;;;;;;;6195490;23;20471;-87
2022/10/27 08:35:46;;;;;;;25.83;8.13;;;;;;;;;;6221524;23;20015;-87
2022/10/27 08:38:16;;;;;;;20.35;7.88;;;;;;;;;;6227236;23;20246;-90
2022/10/27 08:40:50;;;;;;;16.02;7.82;;;;;;;;;;6235265;23;20008;-88
2022/10/27 08:43:59;;;;;;;18.77;8.20;;;;;;;;;;6210009;23;20024;-87
2022/10/27 08:46:39;;;;;;;18.42;8.05;;;;;;;;;;6198239;23;20008;-88
2022/10/27 08:49:16;;;;;;;20.50;8.50;;;;;;;;;;6236109;23;20004;-86
2022/10/27 08:51:44;;;;;;;24.73;8.73;;;;;;;;;;6202912;23;20013;-84
2022/10/27 08:54:20;;;;;;;19.23;8.10;;;;;;;;;;6222940;23;20001;-85
2022/10/27 08:57:18;;;;;;;19.27;8.77;;;;;;;;;;6200276;23;20009;-81
2022/10/27 09:03:42;;;;;;;15.30;8.40;;;;;;;;;;6163694;23;19908;-84
2022/10/27 09:06:20;;;;;;;22.48;9.30;;;;;;;;;;6133849;23;20017;-84
2022/10/27 09:09:14;;;;;;;17.75;8.40;;;;;;;;;;6228999;23;20087;-87
2022/10/27 09:12:03;;;;;;;17.30;8.55;;;;;;;;;;6229974;23;20060;-82
2022/10/27 09:27:44;;;;;;;17.98;9.10;;;;;;;;;;6216495;22;20035;-80
2022/10/27 09:30:16;;;;;;;22.05;8.68;;;;;;;;;;6218894;23;20000;-80
2022/10/27 09:32:52;;;;;;;17.23;8.60;;;;;;;;;;6169904;23;20015;-83
2022/10/27 09:35:39;;;;;;;17.45;8.93;;;;;;;;;;6213854;23;20095;-81
2022/10/27 09:38:24;;;;;;;27.48;9.05;;;;;;;;;;6196683;23;20079;-84
2022/10/27 09:41:10;;;;;;;17.52;8.48;;;;;;;;;;6170531;23;20321;-84
2022/10/27 09:59:37;;;;;;;19.35;9.27;;;;;;;;;;6239593;22;20027;-78
2022/10/27 10:02:25;;;;;;;22.60;9.70;;;;;;;;;;6197078;23;20004;-83
2022/10/27 10:04:54;;;;;;;23.67;8.82;;;;;;;;;;6240922;22;20012;-77
2022/10/27 10:07:34;;;;;;;18.15;9.23;;;;;;;;;;6242797;23;20008;-77
2022/10/27 10:10:08;;;;;;;;;;;;;;;;;;6242630;23;20189;-77
2022/10/27 10:12:34;;;;;;;20.90;8.73;;;;;;;;;;6242147;23;20358;-76
2022/10/27 10:15:12;;;;;;;17.63;8.70;;;;;;;;;;6189940;23;20000;-78
2022/10/27 10:17:42;;;;;;;18.20;8.65;;;;;;;;;;6240314;23;20015;-77
2022/10/27 10:20:08;;;;;;;;;;;;;;;;;;6216967;23;20091;-75
2022/10/27 10:22:36;;;;;;;19.10;7.78;;;;;;;;;;6215567;23;19914;-77
2022/10/27 10:25:31;;;;;;;17.23;8.50;;;;;;;;;;6239583;23;20437;-76
2022/10/27 10:28:03;;;;;;;15.05;8.15;;;;;;;;;;6188868;23;20008;-76
2022/10/27 10:30:34;;;;;;;19.83;8.05;;;;;;;;;;6240473;23;20459;-75
2022/10/27 10:33:01;;;;;;;17.70;8.40;;;;;;;;;;6239278;22;20015;-77
2022/10/27 10:35:48;;;;;;;19.92;8.57;;;;;;;;;;6216510;23;20004;-77
2022/10/27 10:38:36;;;;;;;31.75;8.95;;;;;;;;;;6241728;23;20010;-76
2022/10/27 10:41:06;;;;;;;21.70;7.68;;;;;;;;;;6240546;22;20012;-76
2022/10/27 10:43:32;;;;;;;33.00;8.60;;;;;;;;;;6239844;22;20636;-73
2022/10/27 10:46:02;;;;;;;14.07;8.15;;;;;;;;;;6241052;23;20027;-76
2022/10/27 10:48:32;;;;;;;;;;;;;;;;;;6217036;23;20004;-74
2022/10/27 10:51:03;;;;;;;18.65;7.75;;;;;;;;;;6215919;23;19907;-75
2022/10/27 10:53:37;;;;;;;22.50;8.32;;;;;;;;;;6240782;23;20031;-77
2022/10/27 10:56:05;;;;;;;22.20;8.77;;;;;;;;;;6239160;23;20012;-76
2022/10/27 10:58:31;;;;;;;26.45;9.20;;;;;;;;;;6239678;23;20004;-77
2022/10/27 11:01:01;;;;;;;17.92;8.93;;;;;;;;;;6243334;22;20038;-76
2022/10/27 11:03:38;;;;;;;;;;;;;;;;;;6243268;22;20004;-76
2022/10/27 11:06:05;;;;;;;22.13;9.20;;;;;;;;;;6243456;22;19953;-74
2022/10/27 11:08:41;;;;;;;22.20;9.57;;;;;;;;;;6244850;22;20175;-75
2022/10/27 11:11:21;;;;;;;19.08;9.40;;;;;;;;;;6241370;23;20008;-78
2022/10/27 11:14:12;;;;;;;19.38;9.75;;;;;;;;;;6221269;23;20008;-77
2022/10/27 11:17:00;;;;;;;36.28;9.45;;;;;;;;;;6234495;22;20438;-76
2022/10/27 11:19:26;;;;;;;31.60;9.75;;;;;;;;;;6245767;22;20019;-76
2022/10/27 11:22:00;;;;;;;32.92;9.82;;;;;;;;;;6244796;23;19997;-74
2022/10/27 11:24:49;;;;;;;27.92;9.45;;;;;;;;;;6244775;23;20000;-77
2022/10/27 11:27:18;;;;;;;23.08;9.30;;;;;;;;;;6243128;22;20006;-76
2022/10/27 11:30:04;;;;;;;26.55;9.63;;;;;;;;;;6240951;23;20380;-76
2022/10/27 11:32:58;;;;;;;27.38;9.60;;;;;;;;;;6242096;23;20007;-75
2022/10/27 11:35:40;;;;;;;29.35;10.00;;;;;;;;;;6214167;23;20023;-76
2022/10/27 11:38:24;;;;;;;16.75;8.95;;;;;;;;;;6237044;23;20000;-77
2022/10/27 11:40:50;;;;;;;19.33;10.18;;;;;;;;;;6242150;23;20055;-77
2022/10/27 11:43:24;;;;;;;24.13;9.13;;;;;;;;;;6239495;22;20000;-78
2022/10/27 11:46:10;;;;;;;20.48;9.52;;;;;;;;;;6238321;23;20339;-76
2022/10/27 11:48:44;;;;;;;22.27;9.23;;;;;;;;;;6238234;23;20406;-76
2022/10/27 11:51:16;;;;;;;22.75;9.65;;;;;;;;;;6212455;23;20403;-77
2022/10/27 11:53:41;;;;;;;22.15;9.40;;;;;;;;;;6238879;22;20069;-77
2022/10/27 11:56:13;;;;;;;19.00;8.32;;;;;;;;;;6237534;23;20004;-77
2022/10/27 11:58:42;;;;;;;23.40;11.35;;;;;;;;;;6241118;23;20007;-77
2022/10/27 12:01:32;;;;;;;21.73;9.98;;;;;;;;;;6245377;23;20455;-76
2022/10/27 12:04:22;;;;;;;21.40;9.50;;;;;;;;;;6195443;23;20343;-77
2022/10/27 12:07:00;;;;;;;;;;;;;;;;;;6244336;22;20115;-77
2022/10/27 12:09:28;;;;;;;19.92;9.00;;;;;;;;;;6244442;23;19907;-76
2022/10/27 12:12:18;;;;;;;20.17;9.63;;;;;;;;;;6245438;22;20004;-77
2022/10/27 12:15:02;;;;;;;20.85;8.95;;;;;;;;;;6245124;22;20411;-76
2022/10/27 12:17:37;;;;;;;21.98;9.75;;;;;;;;;;6244045;23;20046;-77
2022/10/27 12:20:02;;;;;;;20.60;8.95;;;;;;;;;;6248734;22;20004;-77
2022/10/27 12:22:47;;;;;;;17.83;9.25;;;;;;;;;;6219790;23;20113;-78
2022/10/27 12:25:20;;;;;;;16.58;9.27;;;;;;;;;;6246607;22;20221;-77
2022/10/27 12:27:47;;;;;;;18.83;8.85;;;;;;;;;;6246082;23;20142;-76
2022/10/27 12:30:22;;;;;;;26.40;10.60;;;;;;;;;;6244643;23;20008;-76
2022/10/27 12:32:50;;;;;;;23.90;9.05;;;;;;;;;;6219023;23;20004;-76
2022/10/27 12:35:34;;;;;;;19.90;9.15;;;;;;;;;;6246212;23;20015;-77
2022/10/27 12:38:23;;;;;;;18.70;9.80;;;;;;;;;;6246408;23;20063;-76
2022/10/27 12:41:07;;;;;;;23.35;9.20;;;;;;;;;;6206896;23;20012;-77
2022/10/27 12:43:51;;;;;;;20.10;8.80;;;;;;;;;;6245195;23;20011;-78
2022/10/27 12:46:31;;;;;;;23.48;9.45;;;;;;;;;;6246937;22;20008;-76
2022/10/27 12:49:12;;;;;;;23.38;9.10;;;;;;;;;;6247161;22;19997;-76
2022/10/27 12:52:08;;;;;;;24.02;8.52;;;;;;;;;;6219917;23;19996;-77
2022/10/27 12:54:48;;;;;;;18.63;6.88;;;;;;;;;;6244142;23;20024;-77
2022/10/27 12:57:32;;;;;;;14.48;7.35;;;;;;;;;;6245883;22;20050;-76
2022/10/27 13:00:07;;;;;;;20.33;7.95;;;;;;;;;;6246630;23;20012;-77
2022/10/27 13:03:12;;;;;;;21.85;7.35;;;;;;;;;;6244452;23;20035;-77
2022/10/27 13:05:52;;;;;;;20.50;7.72;;;;;;;;;;6242475;23;20402;-77
2022/10/27 13:08:24;;;;;;;17.30;7.85;;;;;;;;;;6245041;22;20004;-78
2022/10/27 13:10:58;;;;;;;17.73;8.10;;;;;;;;;;6242133;23;20012;-77
2022/10/27 13:13:38;;;;;;;17.98;7.28;;;;;;;;;;6242240;23;20000;-76
2022/10/27 13:16:25;;;;;;;22.13;7.75;;;;;;;;;;6220097;23;20011;-82
2022/10/27 13:19:45;;;;;;;18.45;7.13;;;;;;;;;;6248883;23;20011;-80
2022/10/27 13:22:13;;;;;;;16.48;6.93;;;;;;;;;;6156804;23;20013;-84
2022/10/27 13:24:57;;;;;;;15.10;7.00;;;;;;;;;;6255949;23;20000;-81
2022/10/27 13:27:27;;;;;;;26.92;7.85;;;;;;;;;;6245715;22;20435;-80
2022/10/27 13:30:03;;;;;;;12.07;6.68;;;;;;;;;;6215621;23;20267;-79
2022/10/27 13:32:38;;;;;;;16.25;6.85;;;;;;;;;;6191849;23;20007;-79
2022/10/27 13:35:03;;;;;;;17.55;7.65;;;;;;;;;;6241142;23;20084;-79
2022/10/27 13:37:40;;;;;;;19.60;7.50;;;;;;;;;;6246802;23;20008;-79
2022/10/27 13:40:26;;;;;;;11.02;6.68;;;;;;;;;;6243082;23;20000;-79
2022/10/27 13:42:52;;;;;;;14.55;7.28;;;;;;;;;;6225937;22;20062;-79
2022/10/27 13:45:26;;;;;;;13.32;6.35;;;;;;;;;;6242551;22;20000;-80
2022/10/27 13:48:07;;;;;;;10.23;6.60;;;;;;;;;;6240324;23;20032;-79
2022/10/27 13:50:54;;;;;;;19.13;7.35;;;;;;;;;;6242909;22;20008;-80
2022/10/27 13:53:20;;;;;;;15.80;6.95;;;;;;;;;;6217096;23;20030;-79
2022/10/27 13:55:56;;;;;;;17.92;7.40;;;;;;;;;;6249635;22;20075;-80
2022/10/27 13:58:26;;;;;;;20.88;6.30;;;;;;;;;;6244411;23;20011;-80
2022/10/27 14:01:12;;;;;;;14.73;6.57;;;;;;;;;;6216815;23;20382;-79
2022/10/27 14:03:37;;;;;;;15.63;6.18;;;;;;;;;;6243112;23;20032;-78
2022/10/27 14:06:08;;;;;;;16.60;6.32;;;;;;;;;;6241917;23;20462;-80
2022/10/27 14:08:45;;;;;;;11.05;5.95;;;;;;;;;;6243882;22;20461;-79
2022/10/27 14:11:12;;;;;;;14.45;6.43;;;;;;;;;;6245766;22;20261;-79
2022/10/27 14:13:40;;;;;;;13.85;5.97;;;;;;;;;;6219124;23;20028;-79
2022/10/27 14:16:06;;;;;;;16.63;6.13;;;;;;;;;;6228565;23;20425;-78
2022/10/27 14:18:35;;;;;;;15.07;5.93;;;;;;;;;;6249088;22;20000;-79
2022/10/27 14:21:21;;;;;;;15.05;5.90;;;;;;;;;;6245687;22;20080;-79
2022/10/27 14:23:46;;;;;;;12.77;5.97;;;;;;;;;;6245598;23;20469;-80
2022/10/27 14:26:35;;;;;;;18.60;6.00;;;;;;;;;;6245728;23;20012;-80
2022/10/27 14:29:01;;;;;;;15.70;6.22;;;;;;;;;;6245494;22;20008;-80
2022/10/27 14:31:26;;;;;;;13.18;7.53;;;;;;;;;;6244323;23;20394;-80
2022/10/27 14:33:52;;;;;;;23.98;7.70;;;;;;;;;;6244156;23;20000;-80
2022/10/27 14:36:32;;;;;;;16.48;7.03;;;;;;;;;;6232678;23;19999;-79
2022/10/27 14:39:05;;;;;;;17.40;6.90;;;;;;;;;;6221651;23;20339;-80
2022/10/27 14:41:31;;;;;;;17.15;6.72;;;;;;;;;;6245656;22;20027;-79
2022/10/27 14:43:58;;;;;;;20.77;7.30;;;;;;;;;;6219564;23;20004;-79
2022/10/27 14:46:27;;;;;;;19.83;7.32;;;;;;;;;;6243904;23;20004;-79
2022/10/27 14:48:58;;;;;;;13.10;7.27;;;;;;;;;;6243617;23;20388;-79
2022/10/27 14:51:24;;;;;;;10.98;5.93;;;;;;;;;;6243838;23;20342;-80
2022/10/27 14:53:51;;;;;;;18.10;7.60;;;;;;;;;;6244484;23;20091;-80
2022/10/27 14:56:22;;;;;;;15.13;7.47;;;;;;;;;;6225668;23;20004;-79
2022/10/27 14:58:58;;;;;;;18.65;7.82;;;;;;;;;;6245503;22;20011;-80
2022/10/27 15:01:27;;;;;;;22.88;7.57;;;;;;;;;;6245441;22;20008;-79
2022/10/27 15:03:53;;;;;;;26.97;7.97;;;;;;;;;;6243442;23;20069;-80
2022/10/27 15:06:19;;;;;;;16.15;5.90;;;;;;;;;;6244060;23;20253;-79
2022/10/27 15:08:45;;;;;;;15.90;7.70;;;;;;;;;;6245392;23;20428;-79
2022/10/27 15:11:22;;;;;;;15.48;7.18;;;;;;;;;;6218691;23;20430;-80
2022/10/27 15:13:47;;;;;;;16.10;6.97;;;;;;;;;;6220692;23;20000;-79
2022/10/27 15:16:21;;;;;;;16.20;6.75;;;;;;;;;;6231271;23;20468;-79
2022/10/27 15:18:47;;;;;;;13.82;6.35;;;;;;;;;;6246939;23;20000;-79
2022/10/27 15:21:14;;;;;;;17.13;6.20;;;;;;;;;;6193632;23;20042;-79
2022/10/27 15:23:41;;;;;;;14.95;6.95;;;;;;;;;;6193498;23;20004;-79
2022/10/27 15:26:27;;;;;;;11.25;6.80;;;;;;;;;;6218602;23;20401;-79
2022/10/27 15:28:52;;;;;;;19.52;8.00;;;;;;;;;;6242812;23;20015;-80
2022/10/27 15:31:18;;;;;;;17.33;7.80;;;;;;;;;;6218271;23;20000;-78
2022/10/27 15:33:45;;;;;;;21.15;7.53;;;;;;;;;;6217905;23;20004;-79
2022/10/27 15:36:20;;;;;;;15.50;7.30;;;;;;;;;;6250603;23;20056;-79
2022/10/27 15:38:48;;;;;;;21.23;7.07;;;;;;;;;;6219399;23;20015;-79
2022/10/27 15:41:33;;;;;;;17.77;7.20;;;;;;;;;;6243691;23;20069;-79
2022/10/27 15:44:01;;;;;;;21.17;7.75;;;;;;;;;;6243355;23;20391;-79
2022/10/27 15:46:33;;;;;;;21.85;7.35;;;;;;;;;;6244883;22;19996;-80
2022/10/27 15:49:02;;;;;;;19.95;7.47;;;;;;;;;;6192824;23;20010;-79
2022/10/27 15:51:56;;;;;;;15.68;7.15;;;;;;;;;;6244680;22;20008;-79
2022/10/27 15:54:39;;;;;;;16.13;7.80;;;;;;;;;;6220359;23;20027;-80
2022/10/27 15:57:25;;;;;;;23.73;7.90;;;;;;;;;;6219474;23;20010;-80
2022/10/27 16:00:04;;;;;;;14.50;7.18;;;;;;;;;;6243717;23;20347;-79
2022/10/27 16:02:34;;;;;;;21.25;7.75;;;;;;;;;;6217643;23;20011;-80
2022/10/27 16:05:28;;;;;;;20.98;7.93;;;;;;;;;;6243215;23;19996;-79
2022/10/27 16:08:20;;;;;;;16.55;8.25;;;;;;;;;;6244834;22;20015;-79
2022/10/27 16:10:54;;;;;;;23.20;9.93;;;;;;;;;;6244625;23;20099;-79
2022/10/27 16:13:20;;;;;;;29.00;13.18;;;;;;;;;;6218148;23;20348;-79
2022/10/27 16:15:46;;;;;;;37.28;15.07;;;;;;;;;;6246035;23;20069;-79
2022/10/27 16:18:12;;;;;;;33.30;14.75;;;;;;;;;;6244575;22;20004;-78
2022/10/27 16:20:40;;;;;;;32.67;13.15;;;;;;;;;;6218060;23;20492;-79
2022/10/27 16:23:13;;;;;;;40.63;15.90;;;;;;;;;;6218510;23;20009;-79
2022/10/27 16:25:41;;;;;;;34.00;15.90;;;;;;;;;;6218090;23;20007;-78
2022/10/27 16:28:15;;;;;;;32.47;14.10;;;;;;;;;;6218296;23;20027;-79
2022/10/27 16:30:41;;;;;;;36.40;15.40;;;;;;;;;;6244251;22;20491;-79
2022/10/27 16:33:16;;;;;;;25.80;12.18;;;;;;;;;;6265578;23;20012;-80
2022/10/27 16:35:42;;;;;;;31.92;13.73;;;;;;;;;;6238889;23;20003;-79
2022/10/27 16:38:09;;;;;;;32.05;12.38;;;;;;;;;;6218072;23;20008;-79
2022/10/27 16:40:35;;;;;;;26.10;11.73;;;;;;;;;;6244685;22;20058;-81
2022/10/27 16:43:02;;;;;;;21.55;10.00;;;;;;;;;;6217919;23;20011;-78
2022/10/27 16:45:27;;;;;;;17.33;8.82;;;;;;;;;;6242326;23;20435;-81
2022/10/27 16:47:53;;;;;;;17.80;9.40;;;;;;;;;;6192871;23;20004;-80